createdAt,value
2022-12-09T00:00:16.315Z,214.30
2022-12-09T00:01:16.225Z,251.70
2022-12-09T00:02:16.565Z,269.60
2022-12-09T00:03:20.078Z,269.70
2022-12-09T00:04:16.248Z,268.30
2022-12-09T00:05:16.133Z,279.40
2022-12-09T00:06:16.040Z,242.40
2022-12-09T00:07:16.138Z,233.20
2022-12-09T00:08:16.363Z,231.30
2022-12-09T00:09:16.171Z,264.70
2022-12-09T00:10:16.069Z,273.90
2022-12-09T00:11:16.017Z,259.30
2022-12-09T00:12:16.063Z,265.20
2022-12-09T00:13:16.036Z,269.50
2022-12-09T00:14:16.157Z,310.30
2022-12-09T00:15:15.970Z,316.40
2022-12-09T00:16:16.141Z,473.80
2022-12-09T00:17:16.153Z,519.10
2022-12-09T00:18:15.917Z,475.80
2022-12-09T00:19:15.954Z,379.40
2022-12-09T00:20:16.064Z,373.10
2022-12-09T00:21:16.007Z,387.60
2022-12-09T00:22:16.068Z,384.00
2022-12-09T00:23:15.869Z,352.60
2022-12-09T00:24:16.132Z,387.20
2022-12-09T00:25:16.095Z,380.90
2022-12-09T00:26:15.919Z,405.80
2022-12-09T00:27:15.861Z,389.60
2022-12-09T00:28:15.906Z,396.30
2022-12-09T00:29:15.892Z,369.10
2022-12-09T00:30:16.107Z,351.30
2022-12-09T00:31:15.899Z,356.70
2022-12-09T00:32:16.083Z,330.90
2022-12-09T00:33:15.998Z,334.80
2022-12-09T00:34:15.766Z,354.30
2022-12-09T00:35:15.764Z,345.10
2022-12-09T00:36:16.016Z,372.60
2022-12-09T00:37:15.737Z,351.20
2022-12-09T00:38:15.783Z,385.40
2022-12-09T00:39:15.727Z,354.30
2022-12-09T00:40:15.663Z,360.80
2022-12-09T00:41:15.663Z,254.10
2022-12-09T00:42:15.909Z,320.50
2022-12-09T00:43:15.857Z,309.20
2022-12-09T00:44:15.649Z,327.90
2022-12-09T00:45:15.622Z,283.70
2022-12-09T00:46:15.656Z,291.10
2022-12-09T00:47:15.687Z,314.10
2022-12-09T00:48:15.718Z,311.60
2022-12-09T00:49:15.805Z,317.80
2022-12-09T00:50:15.567Z,357.20
2022-12-09T00:51:15.596Z,353.00
2022-12-09T00:52:15.649Z,329.50
2022-12-09T00:53:15.540Z,340.70
2022-12-09T00:54:15.589Z,369.50
2022-12-09T00:55:15.620Z,426.40
2022-12-09T00:56:15.491Z,425.10
2022-12-09T00:57:15.637Z,426.90
2022-12-09T00:58:15.479Z,399.60
2022-12-09T00:59:15.503Z,426.70
2022-12-09T01:00:15.453Z,399.90
2022-12-09T01:01:15.717Z,363.10
2022-12-09T01:02:15.678Z,417.50
2022-12-09T01:03:15.583Z,369.70
2022-12-09T01:04:15.527Z,388.90
2022-12-09T01:05:15.612Z,375.90
2022-12-09T01:06:15.409Z,330.20
2022-12-09T01:07:15.629Z,368.70
2022-12-09T01:08:15.689Z,344.10
2022-12-09T01:09:15.585Z,389.70
2022-12-09T01:10:15.499Z,344.40
2022-12-09T01:11:15.340Z,333.10
2022-12-09T01:12:15.313Z,327.70
2022-12-09T01:13:15.392Z,328.30
2022-12-09T01:14:15.406Z,324.20
2022-12-09T01:15:15.459Z,320.10
2022-12-09T01:16:15.356Z,339.80
2022-12-09T01:17:15.612Z,355.70
2022-12-09T01:18:15.235Z,300.90
2022-12-09T01:19:15.623Z,310.70
2022-12-09T01:20:15.217Z,303.30
2022-12-09T01:21:15.223Z,296.70
2022-12-09T01:22:15.461Z,269.30
2022-12-09T01:23:15.460Z,305.50
2022-12-09T01:24:15.347Z,274.20
2022-12-09T01:25:15.222Z,296.00
2022-12-09T01:26:15.449Z,261.30
2022-12-09T01:27:15.164Z,303.30
2022-12-09T01:28:15.153Z,285.20
2022-12-09T01:29:15.529Z,299.60
2022-12-09T01:30:15.385Z,314.20
2022-12-09T01:31:15.541Z,298.80
2022-12-09T01:32:15.355Z,354.30
2022-12-09T01:33:15.098Z,275.50
2022-12-09T01:34:15.130Z,288.40
2022-12-09T01:35:15.070Z,279.30
2022-12-09T01:36:15.158Z,267.40
2022-12-09T01:37:15.089Z,291.00
2022-12-09T01:38:15.024Z,308.60
2022-12-09T01:39:15.246Z,265.10
2022-12-09T01:40:15.004Z,287.10
2022-12-09T01:41:15.024Z,294.60
2022-12-09T01:42:15.022Z,273.90
2022-12-09T01:43:14.994Z,246.20
2022-12-09T01:44:15.000Z,284.40
2022-12-09T01:45:15.147Z,275.60
2022-12-09T01:46:15.019Z,294.90
2022-12-09T01:47:15.017Z,277.60
2022-12-09T01:48:15.179Z,301.40
2022-12-09T01:49:15.008Z,259.60
2022-12-09T01:50:14.909Z,282.30
2022-12-09T01:51:14.922Z,295.60
2022-12-09T01:52:15.221Z,279.00
2022-12-09T01:53:14.870Z,315.70
2022-12-09T01:54:15.048Z,313.00
2022-12-09T01:55:14.857Z,314.40
2022-12-09T01:56:15.053Z,322.70
2022-12-09T01:57:14.830Z,303.30
2022-12-09T01:58:14.976Z,302.50
2022-12-09T01:59:15.113Z,302.20
2022-12-09T02:00:15.073Z,334.00
2022-12-09T02:01:14.979Z,288.40
2022-12-09T02:02:14.807Z,350.50
2022-12-09T02:03:15.065Z,405.90
2022-12-09T02:04:15.131Z,388.40
2022-12-09T02:05:15.175Z,398.50
2022-12-09T02:06:14.900Z,432.20
2022-12-09T02:07:15.055Z,398.50
2022-12-09T02:08:14.759Z,387.40
2022-12-09T02:09:14.848Z,369.80
2022-12-09T02:10:14.682Z,278.90
2022-12-09T02:11:14.890Z,237.90
2022-12-09T02:12:14.738Z,294.40
2022-12-09T02:13:14.663Z,367.40
2022-12-09T02:14:14.664Z,405.30
2022-12-09T02:15:14.672Z,305.10
2022-12-09T02:16:14.903Z,282.80
2022-12-09T02:17:14.823Z,217.50
2022-12-09T02:18:14.582Z,217.50
2022-12-09T02:19:14.599Z,158.80
2022-12-09T02:20:14.613Z,144.60
2022-12-09T02:21:14.567Z,142.10
2022-12-09T02:22:14.559Z,135.30
2022-12-09T02:23:14.561Z,135.70
2022-12-09T02:24:14.670Z,133.20
2022-12-09T02:25:14.542Z,131.80
2022-12-09T02:26:14.559Z,130.30
2022-12-09T02:27:14.634Z,120.70
2022-12-09T02:28:14.529Z,117.70
2022-12-09T02:29:14.463Z,121.00
2022-12-09T02:30:14.459Z,113.40
2022-12-09T02:31:14.874Z,115.30
2022-12-09T02:32:14.626Z,122.90
2022-12-09T02:33:14.817Z,120.40
2022-12-09T02:34:14.738Z,123.10
2022-12-09T02:35:14.727Z,118.60
2022-12-09T02:36:14.434Z,124.50
2022-12-09T02:37:14.524Z,116.40
2022-12-09T02:38:14.507Z,121.90
2022-12-09T02:39:14.357Z,124.20
2022-12-09T02:40:14.360Z,110.20
2022-12-09T02:41:14.446Z,119.80
2022-12-09T02:42:14.367Z,120.90
2022-12-09T02:43:14.384Z,124.30
2022-12-09T02:44:14.394Z,124.30
2022-12-09T02:45:14.294Z,116.40
2022-12-09T02:46:14.618Z,120.60
2022-12-09T02:47:14.604Z,119.10
2022-12-09T02:48:14.372Z,118.30
2022-12-09T02:49:14.247Z,125.80
2022-12-09T02:50:14.690Z,130.20
2022-12-09T02:51:14.270Z,122.30
2022-12-09T02:52:14.271Z,122.90
2022-12-09T02:53:14.224Z,121.50
2022-12-09T02:54:14.268Z,128.50
2022-12-09T02:55:14.250Z,117.60
2022-12-09T02:56:14.324Z,119.20
2022-12-09T02:57:14.178Z,119.50
2022-12-09T02:58:14.166Z,123.10
2022-12-09T02:59:14.187Z,119.10
2022-12-09T03:00:14.431Z,117.60
2022-12-09T03:01:14.262Z,109.40
2022-12-09T03:02:14.338Z,112.90
2022-12-09T03:03:14.350Z,111.20
2022-12-09T03:04:14.237Z,113.60
2022-12-09T03:05:14.163Z,110.90
2022-12-09T03:06:14.462Z,114.10
2022-12-09T03:07:14.053Z,116.30
2022-12-09T03:08:14.291Z,117.50
2022-12-09T03:09:14.465Z,116.10
2022-12-09T03:10:14.106Z,116.10
2022-12-09T03:11:14.368Z,121.30
2022-12-09T03:12:14.006Z,123.40
2022-12-09T03:13:13.988Z,125.30
2022-12-09T03:14:14.055Z,118.00
2022-12-09T03:15:14.257Z,121.70
2022-12-09T03:16:14.084Z,118.50
2022-12-09T03:17:14.143Z,130.30
2022-12-09T03:18:14.302Z,112.40
2022-12-09T03:19:14.108Z,120.60
2022-12-09T03:20:14.396Z,123.20
2022-12-09T03:21:13.996Z,116.90
2022-12-09T03:22:14.221Z,117.50
2022-12-09T03:23:13.883Z,107.40
2022-12-09T03:24:13.885Z,102.90
2022-12-09T03:25:14.007Z,110.80
2022-12-09T03:26:14.104Z,102.20
2022-12-09T03:27:13.834Z,95.50
2022-12-09T03:28:13.840Z,94.90
2022-12-09T03:29:13.806Z,94.20
2022-12-09T03:30:14.211Z,87.30
2022-12-09T03:31:13.937Z,82.50
2022-12-09T03:32:14.028Z,77.90
2022-12-09T03:33:13.840Z,74.10
2022-12-09T03:34:13.787Z,72.20
2022-12-09T03:35:13.842Z,72.30
2022-12-09T03:36:13.764Z,64.70
2022-12-09T03:37:13.827Z,68.80
2022-12-09T03:38:14.040Z,67.10
2022-12-09T03:39:13.697Z,70.10
2022-12-09T03:40:14.509Z,61.70
2022-12-09T03:41:13.712Z,66.80
2022-12-09T03:42:13.686Z,63.20
2022-12-09T03:43:14.001Z,64.70
2022-12-09T03:44:13.920Z,62.60
2022-12-09T03:45:13.679Z,59.80
2022-12-09T03:46:13.815Z,66.40
2022-12-09T03:47:13.720Z,59.60
2022-12-09T03:48:13.892Z,64.10
2022-12-09T03:49:13.628Z,59.20
2022-12-09T03:50:13.593Z,57.90
2022-12-09T03:51:13.711Z,58.90
2022-12-09T03:52:13.572Z,55.60
2022-12-09T03:53:13.556Z,59.20
2022-12-09T03:54:14.534Z,58.80
2022-12-09T03:55:13.570Z,55.90
2022-12-09T03:56:13.649Z,63.20
2022-12-09T03:57:18.482Z,56.10
2022-12-09T03:58:13.789Z,58.70
2022-12-09T03:59:13.789Z,54.90
2022-12-09T04:00:13.957Z,53.50
2022-12-09T04:01:13.746Z,57.00
2022-12-09T04:02:13.631Z,53.60
2022-12-09T04:03:13.557Z,56.30
2022-12-09T04:04:13.751Z,57.50
2022-12-09T04:05:13.838Z,59.00
2022-12-09T04:06:13.421Z,57.20
2022-12-09T04:07:13.452Z,58.10
2022-12-09T04:08:13.769Z,52.30
2022-12-09T04:09:13.458Z,51.60
2022-12-09T04:10:13.652Z,56.80
2022-12-09T04:11:13.641Z,53.00
2022-12-09T04:12:13.481Z,54.70
2022-12-09T04:13:13.686Z,52.50
2022-12-09T04:14:15.793Z,52.00
2022-12-09T04:15:13.374Z,55.00
2022-12-09T04:16:13.355Z,53.60
2022-12-09T04:17:13.517Z,53.80
2022-12-09T04:18:13.371Z,48.90
2022-12-09T04:19:13.640Z,53.30
2022-12-09T04:20:13.661Z,51.20
2022-12-09T04:21:13.235Z,49.80
2022-12-09T04:22:13.452Z,53.90
2022-12-09T04:23:13.401Z,50.30
2022-12-09T04:24:13.579Z,50.80
2022-12-09T04:25:13.275Z,51.30
2022-12-09T04:26:13.542Z,53.20
2022-12-09T04:27:13.325Z,50.40
2022-12-09T04:28:13.306Z,53.20
2022-12-09T04:29:13.215Z,50.60
2022-12-09T04:30:13.728Z,49.30
2022-12-09T04:31:13.192Z,52.00
2022-12-09T04:32:13.534Z,53.20
2022-12-09T04:33:13.345Z,53.50
2022-12-09T04:34:13.408Z,50.30
2022-12-09T04:35:13.142Z,48.40
2022-12-09T04:36:13.097Z,54.70
2022-12-09T04:37:13.259Z,54.60
2022-12-09T04:38:13.094Z,55.20
2022-12-09T04:39:13.400Z,54.60
2022-12-09T04:40:18.197Z,53.90
2022-12-09T04:41:13.170Z,53.10
2022-12-09T04:42:13.108Z,51.00
2022-12-09T04:43:13.345Z,52.70
2022-12-09T04:44:13.049Z,53.90
2022-12-09T04:45:13.226Z,51.20
2022-12-09T04:46:13.048Z,51.70
2022-12-09T04:47:13.413Z,55.30
2022-12-09T04:48:12.958Z,53.50
2022-12-09T04:49:13.099Z,51.00
2022-12-09T04:50:13.768Z,52.10
2022-12-09T04:51:13.089Z,50.70
2022-12-09T04:52:13.120Z,54.30
2022-12-09T04:53:12.894Z,57.00
2022-12-09T04:54:13.098Z,61.60
2022-12-09T04:55:13.197Z,52.60
2022-12-09T04:56:12.967Z,51.30
2022-12-09T04:57:13.144Z,57.10
2022-12-09T04:58:13.076Z,57.10
2022-12-09T04:59:12.906Z,52.70
2022-12-09T05:00:13.845Z,54.80
2022-12-09T05:01:13.099Z,56.40
2022-12-09T05:02:13.050Z,57.00
2022-12-09T05:03:12.937Z,55.60
2022-12-09T05:04:13.001Z,53.90
2022-12-09T05:05:13.127Z,54.70
2022-12-09T05:06:13.299Z,53.00
2022-12-09T05:07:13.127Z,52.90
2022-12-09T05:08:13.170Z,53.00
2022-12-09T05:09:13.262Z,53.70
2022-12-09T05:10:13.292Z,56.00
2022-12-09T05:11:12.836Z,52.30
2022-12-09T05:12:12.705Z,54.00
2022-12-09T05:13:13.022Z,56.00
2022-12-09T05:14:13.084Z,55.30
2022-12-09T05:15:12.762Z,51.80
2022-12-09T05:16:16.305Z,54.20
2022-12-09T05:17:13.018Z,50.70
2022-12-09T05:18:12.856Z,52.70
2022-12-09T05:19:13.659Z,53.20
2022-12-09T05:20:13.068Z,52.20
2022-12-09T05:21:13.078Z,49.90
2022-12-09T05:22:12.884Z,55.90
2022-12-09T05:23:12.576Z,51.50
2022-12-09T05:24:13.018Z,50.40
2022-12-09T05:25:12.711Z,49.70
2022-12-09T05:26:13.183Z,46.50
2022-12-09T05:27:12.619Z,48.80
2022-12-09T05:28:12.871Z,46.80
2022-12-09T05:29:16.598Z,45.50
2022-12-09T05:30:13.348Z,45.20
2022-12-09T05:31:12.624Z,48.50
2022-12-09T05:32:12.600Z,44.20
2022-12-09T05:33:12.550Z,44.90
2022-12-09T05:34:12.995Z,47.60
2022-12-09T05:35:12.641Z,46.50
2022-12-09T05:36:12.601Z,45.40
2022-12-09T05:37:12.425Z,44.90
2022-12-09T05:38:12.834Z,45.10
2022-12-09T05:39:12.768Z,43.00
2022-12-09T05:40:13.029Z,44.90
2022-12-09T05:41:12.810Z,41.00
2022-12-09T05:42:12.739Z,44.50
2022-12-09T05:43:12.653Z,43.30
2022-12-09T05:44:12.437Z,42.30
2022-12-09T05:45:12.605Z,42.70
2022-12-09T05:46:12.512Z,41.70
2022-12-09T05:47:12.741Z,40.70
2022-12-09T05:48:12.568Z,41.40
2022-12-09T05:49:12.786Z,39.80
2022-12-09T05:50:13.168Z,40.80
2022-12-09T05:51:12.417Z,43.70
2022-12-09T05:52:12.259Z,38.00
2022-12-09T05:53:15.146Z,39.80
2022-12-09T05:54:12.736Z,39.80
2022-12-09T05:55:12.640Z,37.30
2022-12-09T05:56:12.378Z,38.30
2022-12-09T05:57:12.432Z,36.70
2022-12-09T05:58:12.203Z,36.60
2022-12-09T05:59:12.231Z,39.30
2022-12-09T06:00:13.010Z,34.30
2022-12-09T06:01:12.534Z,34.70
2022-12-09T06:02:12.290Z,38.10
2022-12-09T06:03:12.280Z,37.60
2022-12-09T06:04:12.684Z,36.70
2022-12-09T06:05:12.474Z,35.30
2022-12-09T06:06:12.535Z,37.70
2022-12-09T06:07:12.360Z,35.00
2022-12-09T06:08:12.238Z,35.80
2022-12-09T06:09:12.482Z,34.10
2022-12-09T06:10:12.853Z,35.70
2022-12-09T06:11:12.218Z,34.30
2022-12-09T06:12:12.447Z,35.60
2022-12-09T06:13:12.218Z,31.70
2022-12-09T06:14:12.131Z,34.20
2022-12-09T06:15:15.624Z,34.80
2022-12-09T06:16:12.231Z,31.30
2022-12-09T06:17:12.314Z,34.50
2022-12-09T06:18:12.195Z,32.70
2022-12-09T06:19:12.166Z,36.10
2022-12-09T06:20:12.291Z,31.90
2022-12-09T06:21:12.158Z,31.20
2022-12-09T06:22:12.172Z,31.10
2022-12-09T06:23:11.956Z,33.20
2022-12-09T06:24:12.374Z,31.20
2022-12-09T06:25:12.672Z,31.70
2022-12-09T06:26:12.091Z,33.50
2022-12-09T06:27:12.231Z,33.50
2022-12-09T06:28:11.951Z,35.60
2022-12-09T06:29:18.051Z,34.10
2022-12-09T06:30:17.975Z,32.50
2022-12-09T06:31:18.147Z,33.40
2022-12-09T06:32:12.234Z,33.00
2022-12-09T06:33:36.816Z,32.70
2022-12-09T06:34:11.964Z,32.50
2022-12-09T06:35:12.481Z,33.20
2022-12-09T06:36:12.048Z,33.90
2022-12-09T06:37:12.098Z,34.30
2022-12-09T06:38:11.933Z,33.60
2022-12-09T06:39:11.979Z,32.60
2022-12-09T06:40:11.859Z,35.00
2022-12-09T06:41:11.844Z,33.90
2022-12-09T06:42:11.972Z,30.90
2022-12-09T06:43:11.742Z,31.60
2022-12-09T06:44:14.315Z,32.90
2022-12-09T06:45:12.915Z,32.80
2022-12-09T06:46:12.062Z,32.00
2022-12-09T06:47:11.908Z,33.50
2022-12-09T06:48:11.779Z,32.90
2022-12-09T06:49:11.892Z,29.60
2022-12-09T06:50:11.686Z,35.10
2022-12-09T06:51:12.105Z,34.10
2022-12-09T06:52:11.779Z,32.50
2022-12-09T06:53:11.904Z,32.40
2022-12-09T06:54:11.676Z,30.20
2022-12-09T06:55:12.736Z,33.60
2022-12-09T06:56:13.184Z,32.50
2022-12-09T06:57:11.553Z,32.30
2022-12-09T06:58:11.749Z,26.80
2022-12-09T06:59:11.899Z,32.00
2022-12-09T07:00:11.510Z,34.50
2022-12-09T07:01:11.625Z,33.10
2022-12-09T07:02:11.742Z,31.00
2022-12-09T07:03:11.939Z,33.80
2022-12-09T07:04:11.704Z,33.20
2022-12-09T07:05:12.135Z,31.60
2022-12-09T07:06:11.819Z,29.90
2022-12-09T07:07:12.011Z,30.30
2022-12-09T07:08:11.820Z,34.30
2022-12-09T07:09:11.599Z,30.00
2022-12-09T07:10:11.780Z,30.50
2022-12-09T07:11:11.791Z,31.20
2022-12-09T07:12:11.661Z,33.20
2022-12-09T07:13:11.539Z,31.90
2022-12-09T07:14:11.599Z,32.00
2022-12-09T07:15:12.150Z,34.50
2022-12-09T07:16:11.809Z,31.80
2022-12-09T07:17:11.427Z,34.30
2022-12-09T07:18:11.710Z,34.50
2022-12-09T07:19:11.844Z,33.50
2022-12-09T07:20:11.393Z,33.00
2022-12-09T07:21:11.351Z,33.90
2022-12-09T07:22:11.478Z,37.00
2022-12-09T07:23:11.514Z,34.50
2022-12-09T07:24:11.372Z,37.30
2022-12-09T07:25:11.574Z,35.10
2022-12-09T07:26:11.330Z,36.30
2022-12-09T07:27:18.645Z,36.80
2022-12-09T07:28:11.488Z,35.80
2022-12-09T07:29:11.247Z,34.40
2022-12-09T07:30:11.642Z,35.00
2022-12-09T07:31:11.274Z,33.20
2022-12-09T07:32:11.659Z,37.80
2022-12-09T07:33:11.502Z,35.90
2022-12-09T07:34:11.737Z,39.40
2022-12-09T07:35:11.423Z,35.50
2022-12-09T07:36:13.519Z,34.00
2022-12-09T07:37:11.475Z,36.00
2022-12-09T07:38:11.533Z,37.60
2022-12-09T07:39:11.473Z,34.10
2022-12-09T07:40:11.219Z,37.80
2022-12-09T07:41:11.237Z,37.50
2022-12-09T07:42:12.067Z,37.50
2022-12-09T07:43:11.193Z,35.70
2022-12-09T07:44:11.206Z,36.90
2022-12-09T07:45:11.408Z,36.50
2022-12-09T07:46:11.394Z,34.50
2022-12-09T07:47:11.142Z,34.60
2022-12-09T07:48:11.317Z,36.40
2022-12-09T07:49:11.181Z,35.70
2022-12-09T07:50:11.140Z,36.40
2022-12-09T07:51:11.004Z,33.90
2022-12-09T07:52:10.987Z,33.60
2022-12-09T07:53:11.181Z,34.60
2022-12-09T07:54:11.137Z,31.30
2022-12-09T07:55:11.543Z,33.20
2022-12-09T07:56:11.163Z,34.20
2022-12-09T07:57:11.275Z,35.60
2022-12-09T07:58:11.257Z,33.90
2022-12-09T07:59:11.035Z,34.50
2022-12-09T08:00:10.965Z,36.90
2022-12-09T08:01:10.899Z,35.00
2022-12-09T08:02:11.235Z,34.10
2022-12-09T08:03:11.006Z,32.90
2022-12-09T08:04:11.370Z,33.30
2022-12-09T08:05:11.901Z,35.20
2022-12-09T08:06:10.960Z,35.00
2022-12-09T08:07:13.268Z,37.00
2022-12-09T08:08:11.161Z,34.10
2022-12-09T08:09:11.291Z,35.00
2022-12-09T08:10:10.905Z,34.80
2022-12-09T08:11:11.063Z,34.00
2022-12-09T08:12:10.962Z,36.50
2022-12-09T08:13:11.031Z,38.10
2022-12-09T08:14:12.627Z,35.30
2022-12-09T08:15:11.006Z,34.70
2022-12-09T08:16:10.794Z,35.30
2022-12-09T08:17:11.279Z,33.30
2022-12-09T08:18:11.226Z,34.80
2022-12-09T08:19:11.227Z,32.90
2022-12-09T08:20:11.180Z,34.10
2022-12-09T08:21:11.048Z,36.20
2022-12-09T08:22:10.682Z,34.40
2022-12-09T08:23:11.025Z,33.90
2022-12-09T08:24:11.090Z,36.00
2022-12-09T08:25:11.373Z,34.50
2022-12-09T08:26:11.149Z,33.50
2022-12-09T08:27:10.705Z,32.80
2022-12-09T08:28:10.988Z,34.00
2022-12-09T08:29:11.085Z,33.80
2022-12-09T08:30:11.513Z,32.00
2022-12-09T08:31:11.383Z,34.10
2022-12-09T08:32:11.289Z,38.40
2022-12-09T08:33:10.547Z,34.80
2022-12-09T08:34:11.146Z,32.70
2022-12-09T08:35:11.097Z,35.10
2022-12-09T08:36:10.907Z,34.40
2022-12-09T08:37:10.503Z,35.30
2022-12-09T08:38:10.815Z,35.60
2022-12-09T08:39:10.923Z,34.30
2022-12-09T08:40:10.704Z,37.10
2022-12-09T08:41:10.557Z,35.30
2022-12-09T08:42:10.433Z,36.80
2022-12-09T08:43:10.804Z,34.90
2022-12-09T08:44:10.582Z,34.40
2022-12-09T08:45:10.722Z,36.90
2022-12-09T08:46:10.629Z,34.80
2022-12-09T08:47:10.738Z,36.30
2022-12-09T08:48:10.527Z,36.10
2022-12-09T08:49:10.955Z,35.70
2022-12-09T08:50:11.290Z,35.30
2022-12-09T08:51:10.605Z,34.80
2022-12-09T08:52:10.272Z,36.60
2022-12-09T08:53:10.631Z,33.90
2022-12-09T08:54:10.710Z,34.00
2022-12-09T08:55:10.741Z,32.80
2022-12-09T08:56:10.447Z,32.10
2022-12-09T08:57:10.697Z,34.00
2022-12-09T08:58:10.468Z,32.70
2022-12-09T08:59:10.427Z,33.00
2022-12-09T09:00:10.822Z,32.60
2022-12-09T09:01:10.567Z,32.30
2022-12-09T09:02:10.755Z,34.80
2022-12-09T09:03:10.623Z,34.60
2022-12-09T09:04:10.688Z,34.50
2022-12-09T09:05:10.544Z,36.20
2022-12-09T09:06:11.197Z,34.90
2022-12-09T09:07:10.694Z,32.30
2022-12-09T09:08:10.429Z,32.60
2022-12-09T09:09:10.739Z,35.50
2022-12-09T09:10:10.578Z,35.00
2022-12-09T09:11:10.445Z,34.20
2022-12-09T09:12:10.185Z,32.60
2022-12-09T09:13:10.329Z,35.60
2022-12-09T09:14:10.197Z,33.40
2022-12-09T09:15:10.566Z,33.90
2022-12-09T09:16:10.401Z,34.40
2022-12-09T09:17:10.215Z,33.30
2022-12-09T09:18:10.269Z,34.20
2022-12-09T09:19:10.500Z,32.70
2022-12-09T09:20:10.872Z,32.80
2022-12-09T09:21:10.421Z,34.00
2022-12-09T09:22:10.002Z,34.90
2022-12-09T09:23:10.104Z,33.80
2022-12-09T09:24:10.452Z,33.80
2022-12-09T09:25:10.689Z,33.80
2022-12-09T09:26:09.932Z,33.10
2022-12-09T09:27:10.347Z,33.70
2022-12-09T09:28:10.074Z,34.80
2022-12-09T09:29:11.135Z,32.50
2022-12-09T09:30:10.673Z,32.80
2022-12-09T09:31:10.239Z,34.40
2022-12-09T09:32:09.989Z,30.70
2022-12-09T09:33:10.386Z,31.30
2022-12-09T09:34:10.194Z,30.00
2022-12-09T09:35:10.265Z,31.30
2022-12-09T09:36:10.710Z,32.50
2022-12-09T09:37:10.143Z,30.20
2022-12-09T09:38:10.097Z,27.50
2022-12-09T09:39:09.953Z,29.80
2022-12-09T09:40:10.521Z,27.30
2022-12-09T09:41:10.132Z,28.50
2022-12-09T09:42:09.858Z,29.30
2022-12-09T09:43:09.759Z,31.00
2022-12-09T09:44:09.740Z,30.70
2022-12-09T09:45:09.981Z,28.90
2022-12-09T09:46:10.120Z,30.20
2022-12-09T09:47:10.023Z,31.10
2022-12-09T09:48:09.842Z,28.40
2022-12-09T09:49:09.766Z,29.50
2022-12-09T09:50:10.664Z,28.60
2022-12-09T09:51:10.493Z,28.50
2022-12-09T09:52:10.188Z,29.60
2022-12-09T09:53:09.727Z,31.60
2022-12-09T09:54:10.005Z,30.00
2022-12-09T09:55:09.776Z,31.60
2022-12-09T09:56:09.657Z,30.10
2022-12-09T09:57:10.161Z,31.10
2022-12-09T09:58:09.839Z,31.60
2022-12-09T09:59:09.804Z,30.00
2022-12-09T10:00:11.080Z,28.90
2022-12-09T10:01:09.790Z,30.00
2022-12-09T10:02:09.762Z,31.20
2022-12-09T10:03:10.396Z,30.20
2022-12-09T10:04:09.925Z,33.70
2022-12-09T10:05:10.120Z,29.70
2022-12-09T10:06:09.803Z,29.60
2022-12-09T10:07:11.492Z,29.10
2022-12-09T10:08:09.765Z,31.20
2022-12-09T10:09:09.615Z,28.70
2022-12-09T10:10:10.308Z,30.00
2022-12-09T10:11:10.085Z,28.70
2022-12-09T10:12:09.793Z,32.80
2022-12-09T10:13:16.120Z,30.00
2022-12-09T10:14:09.967Z,30.30
2022-12-09T10:15:09.821Z,29.30
2022-12-09T10:16:09.811Z,30.10
2022-12-09T10:17:09.609Z,31.40
2022-12-09T10:18:09.631Z,28.80
2022-12-09T10:19:09.877Z,34.00
2022-12-09T10:20:09.772Z,29.30
2022-12-09T10:21:09.703Z,29.20
2022-12-09T10:22:09.666Z,30.00
2022-12-09T10:23:09.554Z,29.20
2022-12-09T10:24:09.548Z,30.40
2022-12-09T10:25:09.857Z,27.90
2022-12-09T10:26:09.535Z,29.20
2022-12-09T10:27:09.697Z,28.30
2022-12-09T10:28:09.501Z,32.10
2022-12-09T10:29:09.563Z,31.90
2022-12-09T10:30:10.336Z,31.40
2022-12-09T10:31:09.428Z,29.70
2022-12-09T10:32:10.536Z,28.20
2022-12-09T10:33:09.586Z,27.40
2022-12-09T10:34:09.605Z,28.20
2022-12-09T10:35:09.570Z,28.40
2022-12-09T10:36:09.218Z,27.90
2022-12-09T10:37:09.724Z,27.30
2022-12-09T10:38:09.678Z,28.60
2022-12-09T10:39:09.238Z,29.10
2022-12-09T10:40:09.686Z,27.50
2022-12-09T10:41:09.236Z,28.80
2022-12-09T10:42:09.708Z,28.10
2022-12-09T10:43:09.493Z,28.00
2022-12-09T10:44:09.165Z,30.00
2022-12-09T10:45:09.387Z,27.20
2022-12-09T10:46:17.733Z,27.70
2022-12-09T10:47:09.594Z,28.70
2022-12-09T10:48:09.335Z,26.30
2022-12-09T10:49:09.768Z,28.80
2022-12-09T10:50:09.988Z,27.90
2022-12-09T10:51:09.563Z,28.50
2022-12-09T10:52:09.324Z,28.80
2022-12-09T10:53:09.094Z,27.30
2022-12-09T10:54:09.099Z,28.10
2022-12-09T10:55:09.220Z,28.50
2022-12-09T10:56:09.266Z,28.80
2022-12-09T10:57:09.714Z,27.50
2022-12-09T10:58:09.079Z,28.80
2022-12-09T10:59:08.998Z,27.60
2022-12-09T11:00:09.561Z,28.30
2022-12-09T11:01:08.980Z,28.70
2022-12-09T11:02:09.099Z,30.20
2022-12-09T11:03:09.238Z,27.40
2022-12-09T11:04:09.027Z,30.20
2022-12-09T11:05:09.037Z,28.10
2022-12-09T11:06:09.271Z,30.70
2022-12-09T11:07:09.381Z,31.10
2022-12-09T11:08:09.063Z,31.80
2022-12-09T11:09:09.335Z,29.50
2022-12-09T11:10:09.649Z,29.50
2022-12-09T11:11:09.366Z,29.30
2022-12-09T11:12:09.289Z,30.50
2022-12-09T11:13:09.005Z,27.50
2022-12-09T11:14:08.842Z,29.10
2022-12-09T11:15:09.002Z,29.30
2022-12-09T11:16:09.058Z,28.00
2022-12-09T11:17:09.047Z,28.60
2022-12-09T11:18:08.939Z,29.60
2022-12-09T11:19:09.150Z,28.80
2022-12-09T11:20:09.879Z,28.00
2022-12-09T11:21:08.851Z,26.50
2022-12-09T11:22:08.677Z,27.70
2022-12-09T11:23:09.187Z,29.20
2022-12-09T11:24:09.657Z,27.90
2022-12-09T11:25:08.755Z,27.70
2022-12-09T11:26:09.088Z,26.00
2022-12-09T11:27:09.664Z,26.00
2022-12-09T11:28:08.731Z,26.80
2022-12-09T11:29:08.820Z,24.40
2022-12-09T11:30:13.181Z,28.00
2022-12-09T11:32:08.801Z,25.80
2022-12-09T11:33:09.044Z,26.50
2022-12-09T11:34:09.068Z,25.60
2022-12-09T11:35:08.699Z,24.70
2022-12-09T11:37:08.485Z,24.20
2022-12-09T11:38:08.535Z,24.70
2022-12-09T11:39:08.500Z,24.20
2022-12-09T11:40:08.723Z,24.70
2022-12-09T11:41:08.465Z,23.20
2022-12-09T11:42:16.091Z,25.80
2022-12-09T11:43:08.432Z,24.80
2022-12-09T11:44:08.433Z,22.90
2022-12-09T11:45:08.401Z,23.70
2022-12-09T11:46:08.507Z,22.20
2022-12-09T11:47:08.449Z,23.30
2022-12-09T11:48:32.593Z,25.10
2022-12-09T11:49:08.409Z,24.70
2022-12-09T11:50:09.158Z,22.70
2022-12-09T11:51:08.404Z,24.80
2022-12-09T11:52:08.346Z,24.80
2022-12-09T11:53:08.417Z,24.60
2022-12-09T11:54:08.298Z,25.00
2022-12-09T11:55:08.371Z,24.40
2022-12-09T11:56:08.303Z,26.70
2022-12-09T11:57:08.270Z,25.20
2022-12-09T11:58:08.309Z,26.60
2022-12-09T11:59:08.848Z,25.20
2022-12-09T12:00:08.588Z,25.40
2022-12-09T12:01:08.304Z,25.30
2022-12-09T12:02:08.316Z,24.70
2022-12-09T12:03:08.294Z,25.10
2022-12-09T12:04:08.501Z,23.50
2022-12-09T12:05:08.261Z,21.70
2022-12-09T12:06:08.189Z,21.60
2022-12-09T12:07:08.344Z,21.20
2022-12-09T12:08:08.391Z,23.30
2022-12-09T12:09:08.172Z,21.20
2022-12-09T12:10:08.453Z,21.70
2022-12-09T12:11:13.437Z,21.00
2022-12-09T12:12:08.147Z,22.30
2022-12-09T12:13:08.239Z,21.50
2022-12-09T12:14:08.073Z,22.70
2022-12-09T12:15:08.049Z,21.50
2022-12-09T12:16:08.206Z,23.40
2022-12-09T12:17:08.291Z,23.60
2022-12-09T12:18:08.043Z,21.80
2022-12-09T12:19:08.103Z,23.70
2022-12-09T12:20:08.334Z,25.30
2022-12-09T12:21:07.971Z,25.60
2022-12-09T12:22:07.970Z,23.80
2022-12-09T12:23:08.076Z,25.40
2022-12-09T12:24:08.025Z,23.80
2022-12-09T12:25:12.482Z,22.20
2022-12-09T12:26:07.980Z,23.00
2022-12-09T12:27:07.975Z,23.40
2022-12-09T12:28:08.008Z,21.00
2022-12-09T12:29:08.508Z,23.30
2022-12-09T12:30:08.111Z,21.40
2022-12-09T12:31:07.850Z,22.60
2022-12-09T12:32:08.134Z,23.40
2022-12-09T12:34:24.042Z,22.70
2022-12-09T12:35:08.093Z,24.10
2022-12-09T12:36:07.883Z,22.40
2022-12-09T12:37:07.839Z,23.30
2022-12-09T12:38:07.903Z,22.40
2022-12-09T12:39:07.875Z,23.80
2022-12-09T12:40:08.122Z,22.20
2022-12-09T12:41:07.829Z,22.70
2022-12-09T12:42:07.840Z,21.10
2022-12-09T12:43:07.940Z,20.90
2022-12-09T12:44:07.919Z,23.80
2022-12-09T12:45:07.709Z,24.00
2022-12-09T12:46:07.853Z,22.70
2022-12-09T12:47:07.806Z,23.60
2022-12-09T12:48:07.771Z,23.80
2022-12-09T12:49:07.723Z,24.20